sensor_id;sensor_type;location;lat;lon;timestamp;temperature;humidity
45008;DHT22;30743;52.008;5.644;2023-12-14T00:00:15;10.60;99.90
45008;DHT22;30743;52.008;5.644;2023-12-14T00:02:40;10.40;99.90
45008;DHT22;30743;52.008;5.644;2023-12-14T00:05:06;10.60;99.90
45008;DHT22;30743;52.008;5.644;2023-12-14T00:07:32;10.70;99.90
45008;DHT22;30743;52.008;5.644;2023-12-14T00:09:57;10.50;99.90
45008;DHT22;30743;52.008;5.644;2023-12-14T00:12:23;10.20;99.90
45008;DHT22;30743;52.008;5.644;2023-12-14T00:14:48;9.80;99.90
45008;DHT22;30743;52.008;5.644;2023-12-14T00:17:14;9.50;99.90
45008;DHT22;30743;52.008;5.644;2023-12-14T00:19:40;9.50;99.90
45008;DHT22;30743;52.008;5.644;2023-12-14T00:22:05;9.90;99.90
45008;DHT22;30743;52.008;5.644;2023-12-14T00:24:31;9.70;99.90
45008;DHT22;30743;52.008;5.644;2023-12-14T00:26:56;8.50;99.90
45008;DHT22;30743;52.008;5.644;2023-12-14T00:29:22;9.60;99.90
45008;DHT22;30743;52.008;5.644;2023-12-14T00:31:48;9.70;99.90
45008;DHT22;30743;52.008;5.644;2023-12-14T00:34:13;9.80;99.90
45008;DHT22;30743;52.008;5.644;2023-12-14T00:36:39;9.50;99.90
45008;DHT22;30743;52.008;5.644;2023-12-14T00:39:04;9.60;99.90
45008;DHT22;30743;52.008;5.644;2023-12-14T00:41:30;9.50;99.90
45008;DHT22;30743;52.008;5.644;2023-12-14T00:43:55;9.60;99.90
45008;DHT22;30743;52.008;5.644;2023-12-14T00:46:21;9.60;99.90
45008;DHT22;30743;52.008;5.644;2023-12-14T00:48:46;9.70;99.90
45008;DHT22;30743;52.008;5.644;2023-12-14T00:51:12;9.60;99.90
45008;DHT22;30743;52.008;5.644;2023-12-14T00:53:37;9.50;99.90
45008;DHT22;30743;52.008;5.644;2023-12-14T00:56:03;9.40;99.90
45008;DHT22;30743;52.008;5.644;2023-12-14T00:58:29;9.30;99.90
45008;DHT22;30743;52.008;5.644;2023-12-14T01:00:54;9.40;99.90
45008;DHT22;30743;52.008;5.644;2023-12-14T01:03:20;9.50;99.90
45008;DHT22;30743;52.008;5.644;2023-12-14T01:05:46;9.10;99.90
45008;DHT22;30743;52.008;5.644;2023-12-14T01:08:11;9.40;99.90
45008;DHT22;30743;52.008;5.644;2023-12-14T01:10:37;9.50;99.90
45008;DHT22;30743;52.008;5.644;2023-12-14T01:13:03;10.50;99.90
45008;DHT22;30743;52.008;5.644;2023-12-14T01:15:28;9.20;99.90
45008;DHT22;30743;52.008;5.644;2023-12-14T01:17:54;9.20;99.90
45008;DHT22;30743;52.008;5.644;2023-12-14T01:20:19;9.20;99.90
45008;DHT22;30743;52.008;5.644;2023-12-14T01:22:45;9.10;99.90
45008;DHT22;30743;52.008;5.644;2023-12-14T01:25:11;9.00;99.90
45008;DHT22;30743;52.008;5.644;2023-12-14T01:27:36;8.80;99.90
45008;DHT22;30743;52.008;5.644;2023-12-14T01:30:02;8.80;99.90
45008;DHT22;30743;52.008;5.644;2023-12-14T01:32:28;9.00;99.90
45008;DHT22;30743;52.008;5.644;2023-12-14T01:34:53;8.90;99.90
45008;DHT22;30743;52.008;5.644;2023-12-14T01:37:19;9.00;99.90
45008;DHT22;30743;52.008;5.644;2023-12-14T01:39:45;9.30;99.90
45008;DHT22;30743;52.008;5.644;2023-12-14T01:42:10;10.50;99.90
45008;DHT22;30743;52.008;5.644;2023-12-14T01:44:36;9.20;99.90
45008;DHT22;30743;52.008;5.644;2023-12-14T01:47:01;9.30;99.90
45008;DHT22;30743;52.008;5.644;2023-12-14T01:49:27;9.40;99.90
45008;DHT22;30743;52.008;5.644;2023-12-14T01:51:52;9.50;99.90
45008;DHT22;30743;52.008;5.644;2023-12-14T01:54:18;9.40;99.90
45008;DHT22;30743;52.008;5.644;2023-12-14T01:56:43;9.40;99.90
45008;DHT22;30743;52.008;5.644;2023-12-14T01:59:09;9.40;99.90
45008;DHT22;30743;52.008;5.644;2023-12-14T02:04:04;10.30;99.90
45008;DHT22;30743;52.008;5.644;2023-12-14T02:06:32;9.50;99.90
45008;DHT22;30743;52.008;5.644;2023-12-14T02:08:57;9.70;99.90
45008;DHT22;30743;52.008;5.644;2023-12-14T02:11:23;9.60;99.90
45008;DHT22;30743;52.008;5.644;2023-12-14T02:13:48;9.70;99.90
45008;DHT22;30743;52.008;5.644;2023-12-14T02:16:14;9.70;99.90
45008;DHT22;30743;52.008;5.644;2023-12-14T02:18:40;9.70;99.90
45008;DHT22;30743;52.008;5.644;2023-12-14T02:21:06;9.80;99.90
45008;DHT22;30743;52.008;5.644;2023-12-14T02:23:31;10.00;99.90
45008;DHT22;30743;52.008;5.644;2023-12-14T02:25:57;10.00;99.90
45008;DHT22;30743;52.008;5.644;2023-12-14T02:28:23;10.10;99.90
45008;DHT22;30743;52.008;5.644;2023-12-14T02:30:48;10.20;99.90
45008;DHT22;30743;52.008;5.644;2023-12-14T02:33:14;10.10;99.90
45008;DHT22;30743;52.008;5.644;2023-12-14T02:35:40;10.10;99.90
45008;DHT22;30743;52.008;5.644;2023-12-14T02:38:05;10.20;99.90
45008;DHT22;30743;52.008;5.644;2023-12-14T02:40:31;10.10;99.90
45008;DHT22;30743;52.008;5.644;2023-12-14T02:42:56;9.90;99.90
45008;DHT22;30743;52.008;5.644;2023-12-14T02:45:22;9.90;99.90
45008;DHT22;30743;52.008;5.644;2023-12-14T02:47:47;10.10;99.90
45008;DHT22;30743;52.008;5.644;2023-12-14T02:50:15;10.20;99.90
45008;DHT22;30743;52.008;5.644;2023-12-14T02:52:41;10.20;99.90
45008;DHT22;30743;52.008;5.644;2023-12-14T02:55:06;10.10;99.90
45008;DHT22;30743;52.008;5.644;2023-12-14T02:57:32;10.20;99.90
45008;DHT22;30743;52.008;5.644;2023-12-14T02:59:57;10.10;99.90
45008;DHT22;30743;52.008;5.644;2023-12-14T03:02:23;10.00;99.90
45008;DHT22;30743;52.008;5.644;2023-12-14T03:04:49;10.30;99.90
45008;DHT22;30743;52.008;5.644;2023-12-14T03:07:14;10.50;99.90
45008;DHT22;30743;52.008;5.644;2023-12-14T03:09:40;10.60;99.90
45008;DHT22;30743;52.008;5.644;2023-12-14T03:12:10;12.20;99.90
45008;DHT22;30743;52.008;5.644;2023-12-14T03:14:36;10.60;99.90
45008;DHT22;30743;52.008;5.644;2023-12-14T03:17:02;10.60;99.90
45008;DHT22;30743;52.008;5.644;2023-12-14T03:19:28;10.60;99.90
45008;DHT22;30743;52.008;5.644;2023-12-14T03:21:53;10.80;99.90
45008;DHT22;30743;52.008;5.644;2023-12-14T03:24:19;10.50;99.90
45008;DHT22;30743;52.008;5.644;2023-12-14T03:26:45;10.70;99.90
45008;DHT22;30743;52.008;5.644;2023-12-14T03:29:10;10.80;99.90
45008;DHT22;30743;52.008;5.644;2023-12-14T03:31:36;10.70;99.90
45008;DHT22;30743;52.008;5.644;2023-12-14T03:34:02;10.40;99.90
45008;DHT22;30743;52.008;5.644;2023-12-14T03:36:28;10.10;99.90
45008;DHT22;30743;52.008;5.644;2023-12-14T03:38:54;10.00;99.90
45008;DHT22;30743;52.008;5.644;2023-12-14T03:41:19;10.20;99.90
45008;DHT22;30743;52.008;5.644;2023-12-14T03:43:45;10.20;99.90
45008;DHT22;30743;52.008;5.644;2023-12-14T03:46:11;10.40;99.90
45008;DHT22;30743;52.008;5.644;2023-12-14T03:48:36;10.40;99.90
45008;DHT22;30743;52.008;5.644;2023-12-14T03:51:05;10.40;99.90
45008;DHT22;30743;52.008;5.644;2023-12-14T03:53:31;10.50;99.90
45008;DHT22;30743;52.008;5.644;2023-12-14T03:56:00;10.60;99.90
45008;DHT22;30743;52.008;5.644;2023-12-14T03:58:26;10.60;99.90
45008;DHT22;30743;52.008;5.644;2023-12-14T04:00:52;10.50;99.90
45008;DHT22;30743;52.008;5.644;2023-12-14T04:03:18;10.60;99.90
45008;DHT22;30743;52.008;5.644;2023-12-14T04:05:43;10.40;99.90
45008;DHT22;30743;52.008;5.644;2023-12-14T04:08:09;10.20;99.90
45008;DHT22;30743;52.008;5.644;2023-12-14T04:10:35;10.30;99.90
45008;DHT22;30743;52.008;5.644;2023-12-14T04:13:01;10.30;99.90
45008;DHT22;30743;52.008;5.644;2023-12-14T04:15:26;10.30;99.90
45008;DHT22;30743;52.008;5.644;2023-12-14T04:17:52;10.40;99.90
45008;DHT22;30743;52.008;5.644;2023-12-14T04:20:17;10.30;99.90
45008;DHT22;30743;52.008;5.644;2023-12-14T04:22:43;10.00;99.90
45008;DHT22;30743;52.008;5.644;2023-12-14T04:25:10;9.60;99.90
45008;DHT22;30743;52.008;5.644;2023-12-14T04:27:35;9.70;99.90
45008;DHT22;30743;52.008;5.644;2023-12-14T04:30:01;9.60;99.90
45008;DHT22;30743;52.008;5.644;2023-12-14T04:32:27;9.50;99.90
45008;DHT22;30743;52.008;5.644;2023-12-14T04:34:52;9.70;99.90
45008;DHT22;30743;52.008;5.644;2023-12-14T04:37:18;9.50;99.90
45008;DHT22;30743;52.008;5.644;2023-12-14T04:39:44;9.70;99.90
45008;DHT22;30743;52.008;5.644;2023-12-14T04:42:09;9.90;99.90
45008;DHT22;30743;52.008;5.644;2023-12-14T04:44:35;9.80;99.90
45008;DHT22;30743;52.008;5.644;2023-12-14T04:47:00;9.50;99.90
45008;DHT22;30743;52.008;5.644;2023-12-14T04:49:26;9.50;99.90
45008;DHT22;30743;52.008;5.644;2023-12-14T04:51:51;9.50;99.90
45008;DHT22;30743;52.008;5.644;2023-12-14T04:54:17;9.70;99.90
45008;DHT22;30743;52.008;5.644;2023-12-14T04:56:46;10.00;99.90
45008;DHT22;30743;52.008;5.644;2023-12-14T04:59:11;9.80;99.90
45008;DHT22;30743;52.008;5.644;2023-12-14T05:01:37;9.70;99.90
45008;DHT22;30743;52.008;5.644;2023-12-14T05:04:03;9.70;99.90
45008;DHT22;30743;52.008;5.644;2023-12-14T05:06:29;9.50;99.90
45008;DHT22;30743;52.008;5.644;2023-12-14T05:08:55;9.80;99.90
45008;DHT22;30743;52.008;5.644;2023-12-14T05:11:21;9.70;99.90
45008;DHT22;30743;52.008;5.644;2023-12-14T05:13:46;9.70;99.90
45008;DHT22;30743;52.008;5.644;2023-12-14T05:16:16;9.90;99.90
45008;DHT22;30743;52.008;5.644;2023-12-14T05:18:41;9.60;99.90
45008;DHT22;30743;52.008;5.644;2023-12-14T05:21:07;9.60;99.90
45008;DHT22;30743;52.008;5.644;2023-12-14T05:23:33;9.50;99.90
45008;DHT22;30743;52.008;5.644;2023-12-14T05:25:58;9.50;99.90
45008;DHT22;30743;52.008;5.644;2023-12-14T05:28:24;9.70;99.90
45008;DHT22;30743;52.008;5.644;2023-12-14T05:30:49;10.00;99.90
45008;DHT22;30743;52.008;5.644;2023-12-14T05:33:15;10.00;99.90
45008;DHT22;30743;52.008;5.644;2023-12-14T05:35:41;10.00;99.90
45008;DHT22;30743;52.008;5.644;2023-12-14T05:38:06;10.00;99.90
45008;DHT22;30743;52.008;5.644;2023-12-14T05:40:32;10.20;99.90
45008;DHT22;30743;52.008;5.644;2023-12-14T05:42:57;10.40;99.90
45008;DHT22;30743;52.008;5.644;2023-12-14T05:45:23;10.60;99.90
45008;DHT22;30743;52.008;5.644;2023-12-14T05:47:49;11.20;99.90
45008;DHT22;30743;52.008;5.644;2023-12-14T05:50:14;10.80;99.90
45008;DHT22;30743;52.008;5.644;2023-12-14T05:52:40;11.00;99.90
45008;DHT22;30743;52.008;5.644;2023-12-14T05:55:10;10.90;99.90
45008;DHT22;30743;52.008;5.644;2023-12-14T05:57:36;11.00;99.90
45008;DHT22;30743;52.008;5.644;2023-12-14T06:00:03;11.00;99.90
45008;DHT22;30743;52.008;5.644;2023-12-14T06:02:29;11.00;99.90
45008;DHT22;30743;52.008;5.644;2023-12-14T06:04:55;11.10;99.90
45008;DHT22;30743;52.008;5.644;2023-12-14T06:07:23;11.30;99.90
45008;DHT22;30743;52.008;5.644;2023-12-14T06:09:49;11.50;99.90
45008;DHT22;30743;52.008;5.644;2023-12-14T06:12:14;11.20;99.90
45008;DHT22;30743;52.008;5.644;2023-12-14T06:14:40;11.00;99.90
45008;DHT22;30743;52.008;5.644;2023-12-14T06:17:05;11.00;99.90
45008;DHT22;30743;52.008;5.644;2023-12-14T06:19:31;11.00;99.90
45008;DHT22;30743;52.008;5.644;2023-12-14T06:21:57;11.00;99.90
45008;DHT22;30743;52.008;5.644;2023-12-14T06:24:23;11.20;99.90
45008;DHT22;30743;52.008;5.644;2023-12-14T06:26:48;10.80;99.90
45008;DHT22;30743;52.008;5.644;2023-12-14T06:29:14;10.80;99.90
45008;DHT22;30743;52.008;5.644;2023-12-14T06:31:40;10.60;99.90
45008;DHT22;30743;52.008;5.644;2023-12-14T06:34:05;10.70;99.90
45008;DHT22;30743;52.008;5.644;2023-12-14T06:36:31;10.60;99.90
45008;DHT22;30743;52.008;5.644;2023-12-14T06:38:58;10.50;99.90
45008;DHT22;30743;52.008;5.644;2023-12-14T06:41:24;10.40;99.90
45008;DHT22;30743;52.008;5.644;2023-12-14T06:43:50;11.00;99.90
45008;DHT22;30743;52.008;5.644;2023-12-14T06:46:17;10.10;99.90
45008;DHT22;30743;52.008;5.644;2023-12-14T06:48:43;9.90;99.90
45008;DHT22;30743;52.008;5.644;2023-12-14T06:51:09;9.90;99.90
45008;DHT22;30743;52.008;5.644;2023-12-14T06:53:35;10.10;99.90
45008;DHT22;30743;52.008;5.644;2023-12-14T06:56:03;10.30;99.90
45008;DHT22;30743;52.008;5.644;2023-12-14T06:58:28;10.50;99.90
45008;DHT22;30743;52.008;5.644;2023-12-14T07:00:54;11.90;99.90
45008;DHT22;30743;52.008;5.644;2023-12-14T07:03:20;11.60;99.90
45008;DHT22;30743;52.008;5.644;2023-12-14T07:05:45;11.80;99.90
45008;DHT22;30743;52.008;5.644;2023-12-14T07:08:11;10.50;99.90
45008;DHT22;30743;52.008;5.644;2023-12-14T07:10:36;11.00;99.90
45008;DHT22;30743;52.008;5.644;2023-12-14T07:13:02;10.10;99.90
45008;DHT22;30743;52.008;5.644;2023-12-14T07:15:27;11.60;99.90
45008;DHT22;30743;52.008;5.644;2023-12-14T07:17:53;10.10;99.90
45008;DHT22;30743;52.008;5.644;2023-12-14T07:20:19;10.30;99.90
45008;DHT22;30743;52.008;5.644;2023-12-14T07:22:44;10.30;99.90
45008;DHT22;30743;52.008;5.644;2023-12-14T07:25:10;10.20;99.90
45008;DHT22;30743;52.008;5.644;2023-12-14T07:27:35;10.10;99.90
45008;DHT22;30743;52.008;5.644;2023-12-14T07:30:01;9.80;99.90
45008;DHT22;30743;52.008;5.644;2023-12-14T07:32:26;9.90;99.90
45008;DHT22;30743;52.008;5.644;2023-12-14T07:34:52;10.00;99.90
45008;DHT22;30743;52.008;5.644;2023-12-14T07:37:18;10.10;99.90
45008;DHT22;30743;52.008;5.644;2023-12-14T07:39:44;10.00;99.90
45008;DHT22;30743;52.008;5.644;2023-12-14T07:42:10;10.10;99.90
45008;DHT22;30743;52.008;5.644;2023-12-14T07:44:35;10.00;99.90
45008;DHT22;30743;52.008;5.644;2023-12-14T07:47:01;9.80;99.90
45008;DHT22;30743;52.008;5.644;2023-12-14T07:49:27;10.00;99.90
45008;DHT22;30743;52.008;5.644;2023-12-14T07:51:53;9.90;99.90
45008;DHT22;30743;52.008;5.644;2023-12-14T07:54:18;10.20;99.90
45008;DHT22;30743;52.008;5.644;2023-12-14T07:56:44;10.00;99.90
45008;DHT22;30743;52.008;5.644;2023-12-14T07:59:11;10.10;99.90
45008;DHT22;30743;52.008;5.644;2023-12-14T08:01:37;10.30;99.90
45008;DHT22;30743;52.008;5.644;2023-12-14T08:04:03;10.10;99.90
45008;DHT22;30743;52.008;5.644;2023-12-14T08:06:32;9.90;99.90
45008;DHT22;30743;52.008;5.644;2023-12-14T08:08:57;10.00;99.90
45008;DHT22;30743;52.008;5.644;2023-12-14T08:11:24;10.10;99.90
45008;DHT22;30743;52.008;5.644;2023-12-14T08:13:49;10.20;99.90
45008;DHT22;30743;52.008;5.644;2023-12-14T08:16:15;10.40;99.90
45008;DHT22;30743;52.008;5.644;2023-12-14T08:18:43;10.40;99.90
45008;DHT22;30743;52.008;5.644;2023-12-14T08:21:11;10.50;99.90
45008;DHT22;30743;52.008;5.644;2023-12-14T08:23:37;10.40;99.90
45008;DHT22;30743;52.008;5.644;2023-12-14T08:26:02;11.90;99.90
45008;DHT22;30743;52.008;5.644;2023-12-14T08:28:28;10.40;99.90
45008;DHT22;30743;52.008;5.644;2023-12-14T08:30:53;10.40;99.90
45008;DHT22;30743;52.008;5.644;2023-12-14T08:33:19;10.50;99.90
45008;DHT22;30743;52.008;5.644;2023-12-14T08:35:45;10.90;99.90
45008;DHT22;30743;52.008;5.644;2023-12-14T08:38:10;10.50;99.90
45008;DHT22;30743;52.008;5.644;2023-12-14T08:40:37;10.60;99.90
45008;DHT22;30743;52.008;5.644;2023-12-14T08:43:02;10.40;99.90
45008;DHT22;30743;52.008;5.644;2023-12-14T08:45:28;10.20;99.90
45008;DHT22;30743;52.008;5.644;2023-12-14T08:47:54;9.90;99.90
45008;DHT22;30743;52.008;5.644;2023-12-14T08:50:20;9.60;99.90
45008;DHT22;30743;52.008;5.644;2023-12-14T08:52:45;10.70;99.90
45008;DHT22;30743;52.008;5.644;2023-12-14T08:55:12;9.80;99.90
45008;DHT22;30743;52.008;5.644;2023-12-14T08:57:38;9.80;99.90
45008;DHT22;30743;52.008;5.644;2023-12-14T09:00:05;9.80;99.90
45008;DHT22;30743;52.008;5.644;2023-12-14T09:02:32;9.90;99.90
45008;DHT22;30743;52.008;5.644;2023-12-14T09:04:57;10.10;99.90
45008;DHT22;30743;52.008;5.644;2023-12-14T09:07:23;10.20;99.90
45008;DHT22;30743;52.008;5.644;2023-12-14T09:09:48;10.40;99.90
45008;DHT22;30743;52.008;5.644;2023-12-14T09:12:14;10.60;99.90
45008;DHT22;30743;52.008;5.644;2023-12-14T09:14:39;10.90;99.90
45008;DHT22;30743;52.008;5.644;2023-12-14T09:17:05;11.00;99.90
45008;DHT22;30743;52.008;5.644;2023-12-14T09:19:31;12.10;99.90
45008;DHT22;30743;52.008;5.644;2023-12-14T09:21:59;10.70;99.90
45008;DHT22;30743;52.008;5.644;2023-12-14T09:24:25;10.80;99.90
45008;DHT22;30743;52.008;5.644;2023-12-14T09:26:50;11.20;99.90
45008;DHT22;30743;52.008;5.644;2023-12-14T09:29:16;11.10;99.90
45008;DHT22;30743;52.008;5.644;2023-12-14T09:31:42;11.20;99.90
45008;DHT22;30743;52.008;5.644;2023-12-14T09:34:09;11.30;99.90
45008;DHT22;30743;52.008;5.644;2023-12-14T09:36:35;12.40;99.90
45008;DHT22;30743;52.008;5.644;2023-12-14T09:39:00;11.10;99.90
45008;DHT22;30743;52.008;5.644;2023-12-14T09:41:26;10.70;99.90
45008;DHT22;30743;52.008;5.644;2023-12-14T09:43:52;10.60;99.90
45008;DHT22;30743;52.008;5.644;2023-12-14T09:46:18;10.40;99.90
45008;DHT22;30743;52.008;5.644;2023-12-14T09:48:45;10.40;99.90
45008;DHT22;30743;52.008;5.644;2023-12-14T09:51:12;10.50;99.90
45008;DHT22;30743;52.008;5.644;2023-12-14T09:53:38;10.80;99.90
45008;DHT22;30743;52.008;5.644;2023-12-14T09:56:04;10.90;99.90
45008;DHT22;30743;52.008;5.644;2023-12-14T09:58:32;11.00;99.90
45008;DHT22;30743;52.008;5.644;2023-12-14T10:00:58;11.10;99.90
45008;DHT22;30743;52.008;5.644;2023-12-14T10:03:28;11.10;99.90
45008;DHT22;30743;52.008;5.644;2023-12-14T10:05:55;10.10;99.90
45008;DHT22;30743;52.008;5.644;2023-12-14T10:08:21;12.30;99.90
45008;DHT22;30743;52.008;5.644;2023-12-14T10:10:48;11.50;99.90
45008;DHT22;30743;52.008;5.644;2023-12-14T10:13:15;11.60;99.90
45008;DHT22;30743;52.008;5.644;2023-12-14T10:15:41;11.70;99.90
45008;DHT22;30743;52.008;5.644;2023-12-14T10:18:07;11.70;99.90
45008;DHT22;30743;52.008;5.644;2023-12-14T10:20:33;11.70;99.90
45008;DHT22;30743;52.008;5.644;2023-12-14T10:22:59;11.80;99.90
45008;DHT22;30743;52.008;5.644;2023-12-14T10:25:25;11.80;99.90
45008;DHT22;30743;52.008;5.644;2023-12-14T10:27:51;11.80;99.90
45008;DHT22;30743;52.008;5.644;2023-12-14T10:30:20;11.70;99.90
45008;DHT22;30743;52.008;5.644;2023-12-14T10:32:49;11.80;99.90
45008;DHT22;30743;52.008;5.644;2023-12-14T10:35:17;11.80;99.90
45008;DHT22;30743;52.008;5.644;2023-12-14T10:37:46;11.70;99.90
45008;DHT22;30743;52.008;5.644;2023-12-14T10:40:14;12.00;99.90
45008;DHT22;30743;52.008;5.644;2023-12-14T10:42:44;13.00;99.90
45008;DHT22;30743;52.008;5.644;2023-12-14T10:45:14;11.90;99.90
45008;DHT22;30743;52.008;5.644;2023-12-14T10:47:46;11.80;99.90
45008;DHT22;30743;52.008;5.644;2023-12-14T10:50:12;11.70;99.90
45008;DHT22;30743;52.008;5.644;2023-12-14T10:52:41;11.70;99.90
45008;DHT22;30743;52.008;5.644;2023-12-14T10:55:11;11.80;99.90
45008;DHT22;30743;52.008;5.644;2023-12-14T10:57:38;11.90;99.90
45008;DHT22;30743;52.008;5.644;2023-12-14T11:00:05;12.10;99.90
45008;DHT22;30743;52.008;5.644;2023-12-14T11:02:45;12.20;99.90
45008;DHT22;30743;52.008;5.644;2023-12-14T11:05:13;12.30;99.90
45008;DHT22;30743;52.008;5.644;2023-12-14T11:07:51;12.70;99.90
45008;DHT22;30743;52.008;5.644;2023-12-14T11:10:24;12.40;99.90
45008;DHT22;30743;52.008;5.644;2023-12-14T11:13:00;12.40;99.90
45008;DHT22;30743;52.008;5.644;2023-12-14T11:15:30;12.50;99.90
45008;DHT22;30743;52.008;5.644;2023-12-14T11:18:19;12.50;99.90
45008;DHT22;30743;52.008;5.644;2023-12-14T11:25:53;12.60;99.90
45008;DHT22;30743;52.008;5.644;2023-12-14T11:28:20;12.60;99.90
45008;DHT22;30743;52.008;5.644;2023-12-14T11:30:46;12.70;99.90
45008;DHT22;30743;52.008;5.644;2023-12-14T11:33:12;14.20;99.90
45008;DHT22;30743;52.008;5.644;2023-12-14T11:35:39;12.80;99.90
45008;DHT22;30743;52.008;5.644;2023-12-14T11:38:05;12.80;99.90
45008;DHT22;30743;52.008;5.644;2023-12-14T11:40:42;12.70;99.90
45008;DHT22;30743;52.008;5.644;2023-12-14T11:43:08;12.90;99.90
45008;DHT22;30743;52.008;5.644;2023-12-14T11:45:35;12.90;99.90
45008;DHT22;30743;52.008;5.644;2023-12-14T11:48:04;13.10;99.90
45008;DHT22;30743;52.008;5.644;2023-12-14T11:50:32;13.00;99.90
45008;DHT22;30743;52.008;5.644;2023-12-14T11:53:00;13.00;99.90
45008;DHT22;30743;52.008;5.644;2023-12-14T11:55:26;13.00;99.90
45008;DHT22;30743;52.008;5.644;2023-12-14T11:57:52;12.80;99.90
45008;DHT22;30743;52.008;5.644;2023-12-14T12:00:24;12.90;99.90
45008;DHT22;30743;52.008;5.644;2023-12-14T12:02:51;13.10;99.90
45008;DHT22;30743;52.008;5.644;2023-12-14T12:05:16;13.30;99.90
45008;DHT22;30743;52.008;5.644;2023-12-14T12:07:45;13.80;99.90
45008;DHT22;30743;52.008;5.644;2023-12-14T12:10:11;14.40;99.90
45008;DHT22;30743;52.008;5.644;2023-12-14T12:12:36;15.40;99.90
45008;DHT22;30743;52.008;5.644;2023-12-14T12:15:03;16.00;99.90
45008;DHT22;30743;52.008;5.644;2023-12-14T12:17:29;16.40;99.90
45008;DHT22;30743;52.008;5.644;2023-12-14T12:19:54;17.10;99.90
45008;DHT22;30743;52.008;5.644;2023-12-14T12:22:20;17.70;99.90
45008;DHT22;30743;52.008;5.644;2023-12-14T12:24:46;18.10;99.90
45008;DHT22;30743;52.008;5.644;2023-12-14T12:27:11;18.40;99.90
45008;DHT22;30743;52.008;5.644;2023-12-14T12:29:37;18.70;99.90
45008;DHT22;30743;52.008;5.644;2023-12-14T12:32:03;18.70;99.90
45008;DHT22;30743;52.008;5.644;2023-12-14T12:34:28;18.60;99.90
45008;DHT22;30743;52.008;5.644;2023-12-14T12:36:54;18.40;99.90
45008;DHT22;30743;52.008;5.644;2023-12-14T12:39:22;19.10;99.90
45008;DHT22;30743;52.008;5.644;2023-12-14T12:41:48;17.90;99.90
45008;DHT22;30743;52.008;5.644;2023-12-14T12:44:14;17.70;99.90
45008;DHT22;30743;52.008;5.644;2023-12-14T12:46:39;17.30;99.90
45008;DHT22;30743;52.008;5.644;2023-12-14T12:49:05;17.20;99.90
45008;DHT22;30743;52.008;5.644;2023-12-14T12:51:31;16.80;99.90
45008;DHT22;30743;52.008;5.644;2023-12-14T12:53:58;16.60;99.90
45008;DHT22;30743;52.008;5.644;2023-12-14T12:56:24;16.20;99.90
45008;DHT22;30743;52.008;5.644;2023-12-14T12:58:50;16.50;99.90
45008;DHT22;30743;52.008;5.644;2023-12-14T13:01:19;15.80;99.90
45008;DHT22;30743;52.008;5.644;2023-12-14T13:03:45;15.90;99.90
45008;DHT22;30743;52.008;5.644;2023-12-14T13:06:10;15.50;99.90
45008;DHT22;30743;52.008;5.644;2023-12-14T13:08:36;16.10;99.90
45008;DHT22;30743;52.008;5.644;2023-12-14T13:11:01;15.30;99.90
45008;DHT22;30743;52.008;5.644;2023-12-14T13:13:27;15.30;99.90
45008;DHT22;30743;52.008;5.644;2023-12-14T13:15:53;15.10;99.90
45008;DHT22;30743;52.008;5.644;2023-12-14T13:18:18;15.10;99.90
45008;DHT22;30743;52.008;5.644;2023-12-14T13:20:44;16.40;99.90
45008;DHT22;30743;52.008;5.644;2023-12-14T13:23:09;16.10;99.90
45008;DHT22;30743;52.008;5.644;2023-12-14T13:25:35;16.30;99.90
45008;DHT22;30743;52.008;5.644;2023-12-14T13:28:02;15.00;99.90
45008;DHT22;30743;52.008;5.644;2023-12-14T13:30:29;14.90;99.90
45008;DHT22;30743;52.008;5.644;2023-12-14T13:32:54;14.80;99.90
45008;DHT22;30743;52.008;5.644;2023-12-14T13:35:20;14.80;99.90
45008;DHT22;30743;52.008;5.644;2023-12-14T13:37:47;16.00;99.90
45008;DHT22;30743;52.008;5.644;2023-12-14T13:40:13;14.60;99.90
45008;DHT22;30743;52.008;5.644;2023-12-14T13:42:39;14.30;99.90
45008;DHT22;30743;52.008;5.644;2023-12-14T13:45:05;15.00;99.90
45008;DHT22;30743;52.008;5.644;2023-12-14T13:47:30;14.20;99.90
45008;DHT22;30743;52.008;5.644;2023-12-14T13:49:56;14.20;99.90
45008;DHT22;30743;52.008;5.644;2023-12-14T13:52:21;14.10;99.90
45008;DHT22;30743;52.008;5.644;2023-12-14T13:54:47;14.10;99.90
45008;DHT22;30743;52.008;5.644;2023-12-14T13:57:13;14.00;99.90
45008;DHT22;30743;52.008;5.644;2023-12-14T13:59:38;13.90;99.90
45008;DHT22;30743;52.008;5.644;2023-12-14T14:02:04;13.90;99.90
45008;DHT22;30743;52.008;5.644;2023-12-14T14:04:30;13.80;99.90
45008;DHT22;30743;52.008;5.644;2023-12-14T14:06:55;13.80;99.90
45008;DHT22;30743;52.008;5.644;2023-12-14T14:09:22;13.90;99.90
45008;DHT22;30743;52.008;5.644;2023-12-14T14:11:47;13.80;99.90
45008;DHT22;30743;52.008;5.644;2023-12-14T14:14:14;13.80;99.90
45008;DHT22;30743;52.008;5.644;2023-12-14T14:16:40;13.60;99.90
45008;DHT22;30743;52.008;5.644;2023-12-14T14:19:06;13.50;99.90
45008;DHT22;30743;52.008;5.644;2023-12-14T14:21:31;13.60;99.90
45008;DHT22;30743;52.008;5.644;2023-12-14T14:23:57;14.00;99.90
45008;DHT22;30743;52.008;5.644;2023-12-14T14:26:22;13.70;99.90
45008;DHT22;30743;52.008;5.644;2023-12-14T14:28:48;13.80;99.90
45008;DHT22;30743;52.008;5.644;2023-12-14T14:31:13;12.60;99.90
45008;DHT22;30743;52.008;5.644;2023-12-14T14:33:39;13.80;99.90
45008;DHT22;30743;52.008;5.644;2023-12-14T14:36:05;13.80;99.90
45008;DHT22;30743;52.008;5.644;2023-12-14T14:38:31;13.80;99.90
45008;DHT22;30743;52.008;5.644;2023-12-14T14:40:57;13.90;99.90
45008;DHT22;30743;52.008;5.644;2023-12-14T14:43:23;13.80;99.90
45008;DHT22;30743;52.008;5.644;2023-12-14T14:45:49;13.80;99.90
45008;DHT22;30743;52.008;5.644;2023-12-14T14:48:14;13.80;99.90
45008;DHT22;30743;52.008;5.644;2023-12-14T14:50:40;13.80;99.90
45008;DHT22;30743;52.008;5.644;2023-12-14T14:53:06;14.10;99.90
45008;DHT22;30743;52.008;5.644;2023-12-14T14:55:31;13.70;99.90
45008;DHT22;30743;52.008;5.644;2023-12-14T14:57:58;13.50;99.90
45008;DHT22;30743;52.008;5.644;2023-12-14T15:00:24;13.50;99.90
45008;DHT22;30743;52.008;5.644;2023-12-14T15:02:51;13.50;99.90
45008;DHT22;30743;52.008;5.644;2023-12-14T15:05:16;13.10;99.90
45008;DHT22;30743;52.008;5.644;2023-12-14T15:07:42;12.80;99.90
45008;DHT22;30743;52.008;5.644;2023-12-14T15:10:08;12.60;99.90
45008;DHT22;30743;52.008;5.644;2023-12-14T15:12:33;12.40;99.90
45008;DHT22;30743;52.008;5.644;2023-12-14T15:14:59;12.20;99.90
45008;DHT22;30743;52.008;5.644;2023-12-14T15:17:24;12.20;99.90
45008;DHT22;30743;52.008;5.644;2023-12-14T15:19:50;12.30;99.90
45008;DHT22;30743;52.008;5.644;2023-12-14T15:22:16;12.60;99.90
45008;DHT22;30743;52.008;5.644;2023-12-14T15:24:42;12.00;99.90
45008;DHT22;30743;52.008;5.644;2023-12-14T15:27:07;12.20;99.90
45008;DHT22;30743;52.008;5.644;2023-12-14T15:29:33;12.20;99.90
45008;DHT22;30743;52.008;5.644;2023-12-14T15:31:59;12.20;99.90
45008;DHT22;30743;52.008;5.644;2023-12-14T15:34:24;12.20;99.90